Grosse Ile, MI

10:29 AM EDT on June 26, 2017 (GMT -0400)
Grosse Ile Municipal

Weather History for KONZ - December, 2013

Change the Weather History Date:

Monday, December 9, 2013

  Actual Average (KDTW) Record (KDTW)
Temperature  
Mean Temperature 26 °F -  
Max Temperature 30 °F 38 °F 58 °F (1946)
Min Temperature 21 °F 24 °F -5 °F (1876)
Degree Days  
Heating Degree Days 40    
Moisture  
Dew Point 22 °F    
Average Humidity 79    
Maximum Humidity 93    
Minimum Humidity 64    
Precipitation  
Precipitation 0.00 in - - ()
Sea Level Pressure  
Sea Level Pressure 29.98 in    
Wind  
Wind Speed 12 mph (SW)    
Max Wind Speed 20 mph    
Max Gust Speed 28 mph    
Visibility 9 miles    
Events Snow    
Averages and records for this station are not official NWS values.
T = Trace of Precipitation, MM = Missing Value Source: NWS Daily Summary

Daily Weather History Graph

Daily Weather History Graph

Search for Another Location

Airport or City:

Trip Planner

Search our weather history database for the weather conditions in past years. The results will help you decide how hot, cold, wet, or windy it might be!

Date:

Astronomy

Dec. 09, 2013 Rise Set
Actual Time 7:49 AM EST 5:00 PM EST
Civil Twilight 7:17 AM EST 5:32 PM EST
Nautical Twilight 6:42 AM EST 6:07 PM EST
Astronomical Twilight 6:08 AM EST 6:41 PM EST
Moon 12:35 PM EST (12/9) No Moon Set
Length of Visible Light 10h 14m
Length of Day
9h 11m
Waxing Crescent, 51% of the Moon is Illuminated
Dec 9
Waxing Crescent
Dec 17
Full
Dec 25
Last Quarter
Jan 1
New
Jan 7
First Quarter

Hourly Weather History & Observations

Time (EST) Temp. Windchill Dew Point Humidity Pressure Visibility Wind Dir Wind Speed Gust Speed Precip Events Conditions
12:14 AM 30.2 °F 24.3 °F 28.4 °F 93% 29.96 in 4.0 mi SE 5.8 mph - N/A   Overcast
12:34 AM 30.2 °F 21.9 °F 28.4 °F 93% 29.95 in 4.0 mi SSE 9.2 mph - N/A   Overcast
12:55 AM 30.2 °F 20.8 °F 28.4 °F 93% 29.93 in 2.5 mi SSE 11.5 mph - N/A   Overcast
1:14 AM 30.2 °F 20.2 °F 28.4 °F 93% 29.92 in 5.0 mi SSE 12.7 mph 16.1 mph N/A   Overcast
1:34 AM 30.2 °F 20.2 °F 28.4 °F 93% 29.91 in 7.0 mi South 12.7 mph - N/A Snow Light Snow
1:54 AM 30.2 °F 18.9 °F 28.4 °F 93% 29.90 in 4.0 mi South 16.1 mph - N/A Snow Light Snow
2:14 AM 30.2 °F 19.8 °F 28.4 °F 93% 29.90 in 2.5 mi South 13.8 mph - N/A Snow Light Snow
2:34 AM 30.2 °F 18.9 °F 28.4 °F 93% 29.89 in 1.8 mi South 16.1 mph - N/A Snow Light Snow
2:54 AM 30.2 °F 20.2 °F 28.4 °F 93% 29.89 in 1.8 mi SSW 12.7 mph - N/A Snow Light Snow
3:14 AM 30.2 °F 21.3 °F 28.4 °F 93% 29.88 in 4.0 mi SSW 10.4 mph - N/A Snow Light Snow
3:34 AM 30.2 °F 21.9 °F 28.4 °F 93% 29.88 in 7.0 mi SSW 9.2 mph - N/A   Overcast
3:54 AM 30.2 °F 21.9 °F 28.4 °F 93% 29.88 in 7.0 mi SSW 9.2 mph - N/A   Overcast
4:15 AM 30.2 °F 21.3 °F 28.4 °F 93% 29.88 in 10.0 mi SSW 10.4 mph - N/A   Overcast
4:34 AM 30.2 °F 21.9 °F 28.4 °F 93% 29.88 in 10.0 mi SW 9.2 mph 16.1 mph N/A   Overcast
4:54 AM 30.2 °F 21.3 °F 26.6 °F 86% 29.88 in 10.0 mi SW 10.4 mph - N/A   Overcast
5:14 AM 30.2 °F 21.9 °F 26.6 °F 86% 29.88 in 10.0 mi SW 9.2 mph - N/A   Overcast
5:34 AM 30.2 °F 21.3 °F 26.6 °F 86% 29.88 in 10.0 mi SW 10.4 mph - N/A   Overcast
5:54 AM 30.2 °F 21.3 °F 26.6 °F 86% 29.88 in 10.0 mi WSW 10.4 mph 16.1 mph N/A   Overcast
6:14 AM 30.2 °F 21.3 °F 26.6 °F 86% 29.88 in 10.0 mi WSW 10.4 mph - N/A   Overcast
6:34 AM 30.2 °F 20.8 °F 26.6 °F 86% 29.89 in 10.0 mi WSW 11.5 mph 17.3 mph N/A   Overcast
6:54 AM 30.2 °F 21.3 °F 26.6 °F 86% 29.90 in 10.0 mi WSW 10.4 mph 19.6 mph N/A   Overcast
7:14 AM 30.2 °F 19.8 °F 26.6 °F 86% 29.90 in 10.0 mi WSW 13.8 mph 18.4 mph N/A   Overcast
7:34 AM 30.2 °F 21.3 °F 26.6 °F 86% 29.90 in 10.0 mi WSW 10.4 mph 19.6 mph N/A   Overcast
7:54 AM 30.2 °F 20.2 °F 26.6 °F 86% 29.91 in 10.0 mi WSW 12.7 mph 18.4 mph N/A   Overcast
8:14 AM 30.2 °F 20.8 °F 26.6 °F 86% 29.91 in 7.0 mi WSW 11.5 mph 18.4 mph N/A   Overcast
8:34 AM 30.2 °F 19.8 °F 26.6 °F 86% 29.93 in 10.0 mi WSW 13.8 mph 20.7 mph N/A   Overcast
8:54 AM 30.2 °F 20.2 °F 26.6 °F 86% 29.93 in 10.0 mi WSW 12.7 mph 19.6 mph N/A   Overcast
9:14 AM 30.2 °F 20.8 °F 24.8 °F 80% 29.94 in 10.0 mi WSW 11.5 mph 19.6 mph N/A   Overcast
9:34 AM 30.2 °F 19.3 °F 24.8 °F 80% 29.95 in 10.0 mi WSW 15.0 mph 23.0 mph N/A   Overcast
9:54 AM 30.2 °F 20.8 °F 24.8 °F 80% 29.96 in 10.0 mi WSW 11.5 mph 20.7 mph N/A   Overcast
10:14 AM 28.4 °F 17.5 °F 23.0 °F 80% 29.97 in 10.0 mi WSW 13.8 mph 25.3 mph N/A   Overcast
10:34 AM 28.4 °F 17.5 °F 23.0 °F 80% 29.98 in 10.0 mi WSW 13.8 mph 27.6 mph N/A   Overcast
10:55 AM 28.4 °F 16.2 °F 23.0 °F 80% 29.99 in 10.0 mi WSW 17.3 mph 25.3 mph N/A   Overcast
11:14 AM 28.4 °F 16.6 °F 23.0 °F 80% 30.00 in 10.0 mi WSW 16.1 mph 25.3 mph N/A   Overcast
11:34 AM 28.4 °F 17.0 °F 23.0 °F 80% 30.00 in 10.0 mi WSW 15.0 mph 25.3 mph N/A   Overcast
11:54 AM 28.4 °F 17.0 °F 21.2 °F 74% 30.00 in 10.0 mi WSW 15.0 mph 21.9 mph N/A   Overcast
12:14 PM 28.4 °F 15.8 °F 21.2 °F 74% 29.99 in 10.0 mi West 18.4 mph 24.2 mph N/A   Overcast
12:34 PM 30.2 °F 20.8 °F 23.0 °F 75% 29.98 in 10.0 mi SW 11.5 mph 21.9 mph N/A   Overcast
12:54 PM 30.2 °F 20.8 °F 21.2 °F 69% 29.97 in 10.0 mi WSW 11.5 mph 20.7 mph N/A   Mostly Cloudy
1:14 PM 28.4 °F 16.6 °F 21.2 °F 74% 29.97 in 10.0 mi WSW 16.1 mph 25.3 mph N/A   Overcast
1:34 PM 28.4 °F 16.6 °F 21.2 °F 74% 29.97 in 10.0 mi WSW 16.1 mph 19.6 mph N/A   Overcast
1:54 PM 28.4 °F 16.2 °F 21.2 °F 74% 29.98 in 10.0 mi WSW 17.3 mph 24.2 mph N/A   Overcast
2:14 PM 28.4 °F 15.4 °F 19.4 °F 69% 30.00 in 10.0 mi WSW 19.6 mph 27.6 mph N/A   Overcast
2:34 PM 28.4 °F 16.6 °F 19.4 °F 69% 30.01 in 10.0 mi WSW 16.1 mph 27.6 mph N/A   Overcast
2:54 PM 28.4 °F 17.0 °F 19.4 °F 69% 30.00 in 10.0 mi SW 15.0 mph 20.7 mph N/A   Overcast
3:14 PM 28.4 °F 15.8 °F 19.4 °F 69% 30.01 in 10.0 mi WSW 18.4 mph 26.5 mph N/A   Overcast
3:34 PM 28.4 °F 16.2 °F 17.6 °F 64% 30.01 in 10.0 mi WSW 17.3 mph 27.6 mph N/A   Overcast
3:54 PM 28.4 °F 16.6 °F 19.4 °F 69% 30.02 in 10.0 mi SW 16.1 mph 27.6 mph N/A   Overcast
4:14 PM 26.6 °F 14.3 °F 19.4 °F 74% 30.03 in 10.0 mi WSW 16.1 mph 24.2 mph N/A   Overcast
4:34 PM 26.6 °F 13.1 °F 17.6 °F 69% 30.04 in 10.0 mi WSW 19.6 mph 25.3 mph N/A   Overcast
4:54 PM 26.6 °F 13.1 °F 17.6 °F 69% 30.05 in 10.0 mi WSW 19.6 mph 27.6 mph N/A   Overcast
5:14 PM 26.6 °F 15.2 °F 17.6 °F 69% 30.06 in 10.0 mi West 13.8 mph 23.0 mph N/A   Overcast
5:34 PM 26.6 °F 16.8 °F 17.6 °F 69% 30.06 in 10.0 mi WSW 10.4 mph 19.6 mph N/A   Overcast
5:54 PM 26.6 °F 15.2 °F 17.6 °F 69% 30.06 in 10.0 mi WSW 13.8 mph - N/A   Overcast
6:14 PM 24.8 °F 12.4 °F 17.6 °F 74% 30.07 in 10.0 mi West 15.0 mph 18.4 mph N/A   Overcast
6:34 PM 24.8 °F 14.0 °F 15.8 °F 69% 30.07 in 10.0 mi WSW 11.5 mph 23.0 mph N/A   Scattered Clouds
6:54 PM 24.8 °F 14.6 °F 15.8 °F 69% 30.06 in 10.0 mi WSW 10.4 mph 18.4 mph N/A   Clear
7:14 PM 24.8 °F 12.9 °F 15.8 °F 69% 30.07 in 10.0 mi WSW 13.8 mph 19.6 mph N/A   Clear
7:34 PM 23.0 °F 10.6 °F 14.0 °F 68% 30.10 in 10.0 mi WSW 13.8 mph 21.9 mph N/A   Clear
7:54 PM 23.0 °F 10.1 °F 15.8 °F 74% 30.10 in 10.0 mi SW 15.0 mph 19.6 mph N/A   Clear
8:14 PM 23.0 °F 12.4 °F 15.8 °F 74% 30.09 in 10.0 mi SW 10.4 mph 18.4 mph N/A   Clear
8:34 PM 21.2 °F 8.9 °F 15.8 °F 80% 30.10 in 10.0 mi SW 12.7 mph 20.7 mph N/A   Clear
8:54 PM 21.2 °F 7.8 °F 14.0 °F 74% 30.09 in 10.0 mi WSW 15.0 mph 19.6 mph N/A   Clear
9:14 PM 21.2 °F 9.5 °F 14.0 °F 74% 30.10 in 10.0 mi WSW 11.5 mph 20.7 mph N/A   Clear
9:34 PM 21.2 °F 8.9 °F 14.0 °F 74% 30.09 in 10.0 mi WSW 12.7 mph 21.9 mph N/A   Clear
9:55 PM 21.2 °F 7.8 °F 14.0 °F 74% 30.09 in 10.0 mi WSW 15.0 mph 23.0 mph N/A   Clear
10:14 PM 21.2 °F 6.8 °F 14.0 °F 74% 30.09 in 10.0 mi WSW 17.3 mph 23.0 mph N/A   Clear
10:34 PM 21.2 °F 8.9 °F 12.2 °F 68% 30.09 in 10.0 mi WSW 12.7 mph 19.6 mph N/A   Clear
10:54 PM 21.2 °F 10.1 °F 12.2 °F 68% 30.09 in 10.0 mi WSW 10.4 mph - N/A   Clear
11:14 PM 21.2 °F 10.1 °F 12.2 °F 68% 30.09 in 10.0 mi WSW 10.4 mph - N/A   Clear
11:34 PM 21.2 °F 9.5 °F 12.2 °F 68% 30.08 in 10.0 mi West 11.5 mph - N/A   Clear
11:54 PM 21.2 °F 10.1 °F 12.2 °F 68% 30.08 in 10.0 mi WSW 10.4 mph 21.9 mph N/A   Clear